createdAt,value
2019-03-13T00:00:59.701Z,8.70
2019-03-13T00:03:28.639Z,8.60
2019-03-13T00:05:57.694Z,8.60
2019-03-13T00:08:26.576Z,8.60
2019-03-13T00:10:55.464Z,8.50
2019-03-13T00:13:24.387Z,8.60
2019-03-13T00:15:53.351Z,8.70
2019-03-13T00:18:22.371Z,8.70
2019-03-13T00:20:51.282Z,8.80
2019-03-13T00:23:20.213Z,8.80
2019-03-13T00:25:49.068Z,9.00
2019-03-13T00:28:17.839Z,9.00
2019-03-13T00:30:46.601Z,9.00
2019-03-13T00:33:15.387Z,9.00
2019-03-13T00:35:44.203Z,9.10
2019-03-13T00:38:13.052Z,9.00
2019-03-13T00:40:41.845Z,9.20
2019-03-13T00:43:10.635Z,9.10
2019-03-13T00:45:39.701Z,9.10
2019-03-13T00:48:08.555Z,9.20
2019-03-13T00:50:37.385Z,9.10
2019-03-13T00:53:06.147Z,9.10
2019-03-13T00:55:35.069Z,9.20
2019-03-13T00:58:03.888Z,9.10
2019-03-13T01:01:04.016Z,9.10
2019-03-13T01:03:55.827Z,9.20
2019-03-13T01:06:27.596Z,9.20
2019-03-13T01:08:56.461Z,9.10
2019-03-13T01:11:27.217Z,9.10
2019-03-13T01:13:55.807Z,9.10
2019-03-13T01:16:24.570Z,9.30
2019-03-13T01:18:53.379Z,9.20
2019-03-13T01:21:22.166Z,9.20
2019-03-13T01:23:50.944Z,9.30
2019-03-13T01:26:19.823Z,9.30
2019-03-13T01:28:48.591Z,9.30
2019-03-13T01:31:35.198Z,9.30
2019-03-13T01:34:21.839Z,9.30
2019-03-13T01:36:50.630Z,9.40
2019-03-13T01:39:19.480Z,9.10
2019-03-13T01:41:48.302Z,9.10
2019-03-13T01:44:17.084Z,8.90
2019-03-13T01:46:45.865Z,8.80
2019-03-13T01:49:14.731Z,8.70
2019-03-13T01:51:43.614Z,8.10
2019-03-13T01:54:12.442Z,7.90
2019-03-13T01:56:41.370Z,7.80
2019-03-13T01:59:10.154Z,7.80
2019-03-13T02:01:39.833Z,7.70
2019-03-13T02:04:08.620Z,7.60
2019-03-13T02:06:37.379Z,7.40
2019-03-13T02:09:07.570Z,7.40
2019-03-13T02:11:36.531Z,7.30
2019-03-13T02:14:05.495Z,7.10
2019-03-13T02:16:34.369Z,7.10
2019-03-13T02:19:03.190Z,7.10
2019-03-13T02:21:32.043Z,7.10
2019-03-13T02:24:00.787Z,7.10
2019-03-13T02:26:29.586Z,7.00
2019-03-13T02:28:58.439Z,7.00
2019-03-13T02:31:27.298Z,7.00
2019-03-13T02:33:56.152Z,6.90
2019-03-13T02:36:24.992Z,6.80
2019-03-13T02:38:53.801Z,6.80
2019-03-13T02:41:22.600Z,6.90
2019-03-13T02:43:51.382Z,6.90
2019-03-13T02:46:20.251Z,6.90
2019-03-13T02:48:49.037Z,6.90
2019-03-13T02:51:17.930Z,7.00
2019-03-13T02:53:46.768Z,7.00
2019-03-13T02:56:15.574Z,7.10
2019-03-13T02:58:44.456Z,7.20
2019-03-13T03:01:31.110Z,7.20
2019-03-13T03:04:02.033Z,7.20
2019-03-13T03:06:30.976Z,7.40
2019-03-13T03:08:59.830Z,7.40
2019-03-13T03:11:28.641Z,7.30
2019-03-13T03:13:57.524Z,7.40
2019-03-13T03:16:26.401Z,7.40
2019-03-13T03:18:55.255Z,7.50
2019-03-13T03:21:24.141Z,7.40
2019-03-13T03:23:52.961Z,7.60
2019-03-13T03:26:21.833Z,7.70
2019-03-13T03:28:50.590Z,7.60
2019-03-13T03:31:19.348Z,7.50
2019-03-13T03:34:00.266Z,7.60
2019-03-13T03:36:29.736Z,7.50
2019-03-13T03:38:58.681Z,7.50
2019-03-13T03:41:27.647Z,7.50
2019-03-13T03:43:56.651Z,7.60
2019-03-13T03:46:25.699Z,7.50
2019-03-13T03:48:54.626Z,7.30
2019-03-13T03:51:23.540Z,7.20
2019-03-13T03:53:52.405Z,7.10
2019-03-13T03:56:21.234Z,7.30
2019-03-13T03:58:50.036Z,7.20
2019-03-13T04:01:18.943Z,7.20
2019-03-13T04:03:47.818Z,7.30
2019-03-13T04:06:16.749Z,7.30
2019-03-13T04:08:45.617Z,7.30
2019-03-13T04:11:14.604Z,7.20
2019-03-13T04:13:45.118Z,7.10
2019-03-13T04:16:14.047Z,7.00
2019-03-13T04:18:42.989Z,7.00
2019-03-13T04:21:13.659Z,7.00
2019-03-13T04:23:42.510Z,7.10
2019-03-13T04:26:13.027Z,6.90
2019-03-13T04:28:42.024Z,6.90
2019-03-13T04:31:10.889Z,6.90
2019-03-13T04:33:39.693Z,6.80
2019-03-13T04:36:08.558Z,6.80
2019-03-13T04:38:37.320Z,6.80
2019-03-13T04:41:06.193Z,6.80
2019-03-13T04:43:35.038Z,6.80
2019-03-13T04:46:03.855Z,6.80
2019-03-13T04:48:32.706Z,6.70
2019-03-13T04:51:01.539Z,6.60
2019-03-13T04:53:30.313Z,6.70
2019-03-13T04:55:59.139Z,6.70
2019-03-13T04:58:28.265Z,6.60
2019-03-13T05:00:57.109Z,6.60
2019-03-13T05:03:25.949Z,6.60
2019-03-13T05:06:18.857Z,6.60
2019-03-13T05:09:00.600Z,6.60
2019-03-13T05:11:29.418Z,6.60
2019-03-13T05:13:58.179Z,6.50
2019-03-13T05:16:27.010Z,6.50
2019-03-13T05:18:55.903Z,6.40
2019-03-13T05:21:24.735Z,6.50
2019-03-13T05:23:53.697Z,6.60
2019-03-13T05:26:22.468Z,6.50
2019-03-13T05:28:51.262Z,6.40
2019-03-13T05:31:20.075Z,6.30
2019-03-13T05:33:48.879Z,6.20
2019-03-13T05:36:17.672Z,6.20
2019-03-13T05:38:46.586Z,6.30
2019-03-13T05:41:15.463Z,6.30
2019-03-13T05:43:44.305Z,6.40
2019-03-13T05:46:13.070Z,6.50
2019-03-13T05:48:41.847Z,6.40
2019-03-13T05:51:15.508Z,6.30
2019-03-13T05:53:44.945Z,6.50
2019-03-13T05:56:17.125Z,6.40
2019-03-13T05:58:46.023Z,6.40
2019-03-13T06:01:14.825Z,6.40
2019-03-13T06:03:43.667Z,6.30
2019-03-13T06:06:12.473Z,6.20
2019-03-13T06:08:41.382Z,6.20
2019-03-13T06:11:10.313Z,6.20
2019-03-13T06:13:39.125Z,6.30
2019-03-13T06:16:07.961Z,6.50
2019-03-13T06:18:36.900Z,6.60
2019-03-13T06:21:06.236Z,6.60
2019-03-13T06:23:36.280Z,6.70
2019-03-13T06:26:05.242Z,6.80
2019-03-13T06:28:34.045Z,6.70
2019-03-13T06:31:02.799Z,6.70
2019-03-13T06:33:31.576Z,6.60
2019-03-13T06:36:00.382Z,6.70
2019-03-13T06:38:29.228Z,6.80
2019-03-13T06:40:58.147Z,6.90
2019-03-13T06:43:26.947Z,6.90
2019-03-13T06:45:55.837Z,6.90
2019-03-13T06:48:24.712Z,6.90
2019-03-13T06:50:53.717Z,6.80
2019-03-13T06:53:22.484Z,6.60
2019-03-13T06:55:51.256Z,6.80
2019-03-13T06:58:29.076Z,6.70
2019-03-13T07:01:06.039Z,6.80
2019-03-13T07:04:06.473Z,6.70
2019-03-13T07:06:57.331Z,6.90
2019-03-13T07:09:31.849Z,6.90
2019-03-13T07:12:18.274Z,6.70
2019-03-13T07:15:06.445Z,6.70
2019-03-13T07:17:53.036Z,6.60
2019-03-13T07:20:43.993Z,6.50
2019-03-13T07:23:37.933Z,6.60
2019-03-13T07:26:14.841Z,6.80
2019-03-13T07:29:11.544Z,6.90
2019-03-13T07:31:50.176Z,6.90
2019-03-13T07:34:30.986Z,7.00
2019-03-13T07:37:07.331Z,7.00
2019-03-13T07:39:52.657Z,7.20
2019-03-13T07:42:58.988Z,7.30
2019-03-13T07:45:44.690Z,7.20
2019-03-13T07:48:29.694Z,7.20
2019-03-13T07:51:07.065Z,7.10
2019-03-13T07:53:45.500Z,7.10
2019-03-13T07:56:32.413Z,7.20
2019-03-13T07:59:12.951Z,7.50
2019-03-13T08:01:48.916Z,7.60
2019-03-13T08:04:46.172Z,7.50
2019-03-13T08:07:32.867Z,7.20
2019-03-13T08:10:33.090Z,7.40
2019-03-13T08:13:14.294Z,7.40
2019-03-13T08:16:06.941Z,7.40
2019-03-13T08:18:50.634Z,7.50
2019-03-13T08:21:38.791Z,7.60
2019-03-13T08:24:26.838Z,7.50
2019-03-13T08:27:01.577Z,7.70
2019-03-13T08:29:49.474Z,7.70
2019-03-13T08:32:36.128Z,7.80
2019-03-13T08:35:13.906Z,7.80
2019-03-13T08:37:50.946Z,7.70
2019-03-13T08:40:44.597Z,7.90
2019-03-13T08:43:36.932Z,7.90
2019-03-13T08:46:20.947Z,8.20
2019-03-13T08:48:55.915Z,8.20
2019-03-13T08:51:35.963Z,8.30
2019-03-13T08:54:33.425Z,8.60
2019-03-13T08:57:10.396Z,8.30
2019-03-13T09:00:00.595Z,8.50
2019-03-13T09:03:03.345Z,8.50
2019-03-13T09:05:45.663Z,8.50
2019-03-13T09:08:39.158Z,8.60
2019-03-13T09:11:39.016Z,8.70
2019-03-13T09:14:25.592Z,8.60
2019-03-13T09:17:25.576Z,8.70
2019-03-13T09:20:09.248Z,8.80
2019-03-13T09:22:53.620Z,8.80
2019-03-13T09:25:36.441Z,8.90
2019-03-13T09:28:24.667Z,9.00
2019-03-13T09:31:16.972Z,9.10
2019-03-13T09:34:05.396Z,9.20
2019-03-13T09:36:47.800Z,9.40
2019-03-13T09:39:26.047Z,9.60
2019-03-13T09:42:19.857Z,9.80
2019-03-13T09:44:59.299Z,9.80
2019-03-13T09:47:53.321Z,9.80
2019-03-13T09:50:30.133Z,9.90
2019-03-13T09:53:20.911Z,9.50
2019-03-13T09:56:11.663Z,9.70
2019-03-13T09:59:09.969Z,9.90
2019-03-13T10:01:56.937Z,9.80
2019-03-13T10:04:44.978Z,9.50
2019-03-13T10:07:31.712Z,9.50
2019-03-13T10:10:12.560Z,9.50
2019-03-13T10:12:47.603Z,9.40
2019-03-13T10:15:38.520Z,9.70
2019-03-13T10:18:17.021Z,9.70
2019-03-13T10:21:20.224Z,9.60
2019-03-13T10:24:08.188Z,9.90
2019-03-13T10:26:48.960Z,9.80
2019-03-13T10:29:41.063Z,10.10
2019-03-13T10:32:27.800Z,10.60
2019-03-13T10:35:15.957Z,11.00
2019-03-13T10:37:53.130Z,11.30
2019-03-13T10:40:56.212Z,11.80
2019-03-13T10:43:50.311Z,11.60
2019-03-13T10:46:43.692Z,11.40
2019-03-13T10:49:24.415Z,11.70
2019-03-13T10:52:02.666Z,11.90
2019-03-13T10:54:56.550Z,12.10
2019-03-13T10:57:57.020Z,12.40
2019-03-13T11:00:43.967Z,13.70
2019-03-13T11:03:50.389Z,13.90
2019-03-13T11:06:54.435Z,13.80
2019-03-13T11:09:23.750Z,13.00
2019-03-13T11:12:17.807Z,13.30
2019-03-13T11:14:53.767Z,13.20
2019-03-13T11:17:57.007Z,13.20
2019-03-13T11:20:37.156Z,14.10
2019-03-13T11:23:37.124Z,15.10
2019-03-13T11:26:31.235Z,15.20
2019-03-13T11:29:27.953Z,14.50
2019-03-13T11:32:03.407Z,14.40
2019-03-13T11:34:38.984Z,13.00
2019-03-13T11:37:16.769Z,12.80
2019-03-13T11:40:23.240Z,12.50
2019-03-13T11:43:10.063Z,11.90
2019-03-13T11:46:08.530Z,11.60
2019-03-13T11:48:59.352Z,11.70
2019-03-13T11:51:48.220Z,11.80
2019-03-13T11:54:31.815Z,11.40
2019-03-13T11:57:07.772Z,11.20
2019-03-13T11:59:47.934Z,10.90
2019-03-13T12:02:29.356Z,10.60
2019-03-13T12:05:07.548Z,10.50
2019-03-13T12:07:46.500Z,10.60
2019-03-13T12:10:37.327Z,10.50
2019-03-13T12:13:34.217Z,10.50
2019-03-13T12:16:22.324Z,10.40
2019-03-13T12:19:09.564Z,10.30
2019-03-13T12:22:00.357Z,10.30
2019-03-13T12:24:48.237Z,10.20
2019-03-13T12:27:23.715Z,10.30
2019-03-13T12:30:11.025Z,10.10
2019-03-13T12:32:53.639Z,10.20
2019-03-13T12:35:47.824Z,10.20
2019-03-13T12:38:31.083Z,10.20
2019-03-13T12:41:22.237Z,10.30
2019-03-13T12:44:10.362Z,10.20
2019-03-13T12:46:53.291Z,10.20
2019-03-13T12:49:29.022Z,10.20
2019-03-13T12:52:19.913Z,10.20
2019-03-13T12:54:57.188Z,9.90
2019-03-13T12:57:49.720Z,9.90
2019-03-13T13:00:33.292Z,10.00
2019-03-13T13:03:24.931Z,10.00
2019-03-13T13:06:12.844Z,9.90
2019-03-13T13:09:04.024Z,10.00
2019-03-13T13:11:47.826Z,10.00
2019-03-13T13:14:34.710Z,10.00
2019-03-13T13:17:35.198Z,10.00
2019-03-13T13:20:04.803Z,10.00
2019-03-13T13:22:33.610Z,10.10
2019-03-13T13:25:02.478Z,10.10
2019-03-13T13:27:31.433Z,10.10
2019-03-13T13:30:00.405Z,10.10
2019-03-13T13:32:29.635Z,10.10
2019-03-13T13:34:58.554Z,10.00
2019-03-13T13:37:27.435Z,10.20
2019-03-13T13:39:56.259Z,10.00
2019-03-13T13:42:25.187Z,10.00
2019-03-13T13:44:54.003Z,10.00
2019-03-13T13:47:22.806Z,10.10
2019-03-13T13:49:59.716Z,10.20
2019-03-13T13:52:22.295Z,10.30
2019-03-13T13:54:51.139Z,10.30
2019-03-13T13:57:20.036Z,10.40
2019-03-13T13:59:49.035Z,10.50
2019-03-13T14:02:17.974Z,10.30
2019-03-13T14:04:46.995Z,10.10
2019-03-13T14:07:15.877Z,10.30
2019-03-13T14:09:44.666Z,10.40
2019-03-13T14:12:13.571Z,10.40
2019-03-13T14:14:42.397Z,10.30
2019-03-13T14:17:11.361Z,10.50
2019-03-13T14:19:40.187Z,10.40
2019-03-13T14:22:08.983Z,10.30
2019-03-13T14:24:37.799Z,10.40
2019-03-13T14:27:14.400Z,10.50
2019-03-13T14:29:37.386Z,10.40
2019-03-13T14:32:06.282Z,10.20
2019-03-13T14:34:35.125Z,10.20
2019-03-13T14:37:04.039Z,10.10
2019-03-13T14:39:33.028Z,10.20
2019-03-13T14:42:01.861Z,10.20
2019-03-13T14:44:30.748Z,10.20
2019-03-13T14:46:59.656Z,10.30
2019-03-13T14:49:28.526Z,10.30
2019-03-13T14:51:57.484Z,10.40
2019-03-13T14:54:28.855Z,10.40
2019-03-13T14:56:57.852Z,10.40
2019-03-13T14:59:26.732Z,10.40
2019-03-13T15:01:55.536Z,10.40
2019-03-13T15:04:24.338Z,10.30
2019-03-13T15:06:53.164Z,10.40
2019-03-13T15:09:23.220Z,10.50
2019-03-13T15:11:52.139Z,10.30
2019-03-13T15:14:21.156Z,10.30
2019-03-13T15:16:53.137Z,10.30
2019-03-13T15:19:20.550Z,10.20
2019-03-13T15:21:49.406Z,10.10
2019-03-13T15:24:18.219Z,10.20
2019-03-13T15:26:47.113Z,10.20
2019-03-13T15:29:16.024Z,10.10
2019-03-13T15:31:45.032Z,10.20
2019-03-13T15:34:14.002Z,10.20
2019-03-13T15:36:42.843Z,10.30
2019-03-13T15:39:11.701Z,10.10
2019-03-13T15:41:40.571Z,10.20
2019-03-13T15:44:09.462Z,10.20
2019-03-13T15:46:38.223Z,10.30
2019-03-13T15:49:07.120Z,10.20
2019-03-13T15:51:38.825Z,10.10
2019-03-13T15:54:06.907Z,10.10
2019-03-13T15:56:35.753Z,10.00
2019-03-13T15:59:04.687Z,10.10
2019-03-13T16:01:33.653Z,10.00
2019-03-13T16:04:02.602Z,10.10
2019-03-13T16:06:31.439Z,10.00
2019-03-13T16:09:00.265Z,10.00
2019-03-13T16:11:29.139Z,10.00
2019-03-13T16:13:57.913Z,10.00
2019-03-13T16:16:26.768Z,9.90
2019-03-13T16:18:55.639Z,9.90
2019-03-13T16:21:24.533Z,9.90
2019-03-13T16:23:53.304Z,9.90
2019-03-13T16:26:22.170Z,10.00
2019-03-13T16:28:51.018Z,9.90
2019-03-13T16:31:20.092Z,10.00
2019-03-13T16:33:50.976Z,9.90
2019-03-13T16:36:19.791Z,10.00
2019-03-13T16:38:48.656Z,10.00
2019-03-13T16:41:17.459Z,9.90
2019-03-13T16:43:46.396Z,9.90
2019-03-13T16:46:16.784Z,10.00
2019-03-13T16:48:45.700Z,9.90
2019-03-13T16:51:14.910Z,9.90
2019-03-13T16:53:43.878Z,10.00
2019-03-13T16:56:12.901Z,9.90
2019-03-13T16:58:41.945Z,10.00
2019-03-13T17:01:10.735Z,9.90
2019-03-13T17:03:40.832Z,9.80
2019-03-13T17:06:09.729Z,9.80
2019-03-13T17:08:38.586Z,9.70
2019-03-13T17:11:07.535Z,9.70
2019-03-13T17:13:36.389Z,9.50
2019-03-13T17:16:05.536Z,9.50
2019-03-13T17:18:34.352Z,9.40
2019-03-13T17:21:03.295Z,9.30
2019-03-13T17:23:32.070Z,9.30
2019-03-13T17:26:00.965Z,9.40
2019-03-13T17:28:29.893Z,9.20
2019-03-13T17:30:58.699Z,9.40
2019-03-13T17:33:27.632Z,9.50
2019-03-13T17:35:56.491Z,9.50
2019-03-13T17:38:25.329Z,9.50
2019-03-13T17:40:54.240Z,9.50
2019-03-13T17:43:23.143Z,9.50
2019-03-13T17:45:52.040Z,9.50
2019-03-13T17:48:21.144Z,9.50
2019-03-13T17:50:50.059Z,9.40
2019-03-13T17:53:19.055Z,9.30
2019-03-13T17:55:48.026Z,9.40
2019-03-13T17:58:16.883Z,9.30
2019-03-13T18:00:48.319Z,9.30
2019-03-13T18:03:17.360Z,9.30
2019-03-13T18:05:46.332Z,9.20
2019-03-13T18:08:15.582Z,9.10
2019-03-13T18:10:44.497Z,9.20
2019-03-13T18:13:13.398Z,9.20
2019-03-13T18:15:42.294Z,9.30
2019-03-13T18:18:11.100Z,9.30
2019-03-13T18:20:39.969Z,9.10
2019-03-13T18:23:08.915Z,9.30
2019-03-13T18:25:37.908Z,9.30
2019-03-13T18:28:06.955Z,9.30
2019-03-13T18:30:35.826Z,9.30
2019-03-13T18:33:04.923Z,9.30
2019-03-13T18:35:34.142Z,9.30
2019-03-13T18:38:03.028Z,9.30
2019-03-13T18:40:31.826Z,9.30
2019-03-13T18:43:00.758Z,8.90
2019-03-13T18:45:29.691Z,8.90
2019-03-13T18:47:58.677Z,8.70
2019-03-13T18:50:27.836Z,8.70
2019-03-13T18:52:56.982Z,8.50
2019-03-13T18:55:26.229Z,8.40
2019-03-13T18:57:55.228Z,8.30
2019-03-13T19:00:26.515Z,8.30
2019-03-13T19:02:55.631Z,8.20
2019-03-13T19:05:25.877Z,8.20
2019-03-13T19:07:55.103Z,8.20
2019-03-13T19:10:24.159Z,8.10
2019-03-13T19:12:53.013Z,7.90
2019-03-13T19:15:22.282Z,7.90
2019-03-13T19:17:54.021Z,7.80
2019-03-13T19:20:23.143Z,7.90
2019-03-13T19:22:52.870Z,7.70
2019-03-13T19:25:21.809Z,7.80
2019-03-13T19:27:56.803Z,7.80
2019-03-13T19:30:29.990Z,7.70
2019-03-13T19:32:59.286Z,7.80
2019-03-13T19:35:29.711Z,7.70
2019-03-13T19:38:05.824Z,7.70
2019-03-13T19:40:34.873Z,7.70
2019-03-13T19:43:03.773Z,7.70
2019-03-13T19:45:38.043Z,7.80
2019-03-13T19:48:06.942Z,7.80
2019-03-13T19:50:35.909Z,7.70
2019-03-13T19:53:06.025Z,7.80
2019-03-13T19:55:34.928Z,7.90
2019-03-13T19:58:04.007Z,7.80
2019-03-13T20:00:32.858Z,7.90
2019-03-13T20:03:02.141Z,8.00
2019-03-13T20:05:30.995Z,7.90
2019-03-13T20:07:59.924Z,8.00
2019-03-13T20:10:28.842Z,7.90
2019-03-13T20:12:57.738Z,7.90
2019-03-13T20:15:27.135Z,8.00
2019-03-13T20:17:56.104Z,8.00
2019-03-13T20:20:25.403Z,8.10
2019-03-13T20:22:57.205Z,8.10
2019-03-13T20:25:26.556Z,8.10
2019-03-13T20:27:55.473Z,8.20
2019-03-13T20:30:24.654Z,8.20
2019-03-13T20:32:53.654Z,8.20
2019-03-13T20:35:22.575Z,8.10
2019-03-13T20:37:51.524Z,8.20
2019-03-13T20:40:21.075Z,8.20
2019-03-13T20:42:50.122Z,8.20
2019-03-13T20:45:20.938Z,8.10
2019-03-13T20:47:49.940Z,8.20
2019-03-13T20:50:19.423Z,8.20
2019-03-13T20:52:48.302Z,8.10
2019-03-13T20:55:17.555Z,8.10
2019-03-13T20:57:46.562Z,8.10
2019-03-13T21:00:19.413Z,8.00
2019-03-13T21:02:48.387Z,8.00
2019-03-13T21:05:17.436Z,8.00
2019-03-13T21:07:46.333Z,8.10
2019-03-13T21:10:16.000Z,8.00
2019-03-13T21:12:45.044Z,7.90
2019-03-13T21:15:14.584Z,7.90
2019-03-13T21:17:43.513Z,8.00
2019-03-13T21:20:13.851Z,7.90
2019-03-13T21:22:42.721Z,7.90
2019-03-13T21:25:12.917Z,8.00
2019-03-13T21:27:41.796Z,8.00
2019-03-13T21:30:17.937Z,8.00
2019-03-13T21:32:46.906Z,7.90
2019-03-13T21:35:17.704Z,7.90
2019-03-13T21:37:46.675Z,7.60
2019-03-13T21:40:16.060Z,7.70
2019-03-13T21:42:45.187Z,7.70
2019-03-13T21:45:22.164Z,7.40
2019-03-13T21:47:44.829Z,7.10
2019-03-13T21:50:14.039Z,6.90
2019-03-13T21:52:43.000Z,7.00
2019-03-13T21:55:12.534Z,6.90
2019-03-13T21:57:41.436Z,6.90
2019-03-13T22:00:16.882Z,7.00
2019-03-13T22:02:45.743Z,6.90
2019-03-13T22:05:25.059Z,6.90
2019-03-13T22:07:45.135Z,7.00
2019-03-13T22:10:14.924Z,7.00
2019-03-13T22:12:43.851Z,7.10
2019-03-13T22:15:13.676Z,6.90
2019-03-13T22:17:42.752Z,7.00
2019-03-13T22:20:12.381Z,6.90
2019-03-13T22:22:41.324Z,6.90
2019-03-13T22:25:11.338Z,6.80
2019-03-13T22:27:40.219Z,6.70
2019-03-13T22:30:18.017Z,6.80
2019-03-13T22:32:46.945Z,6.60
2019-03-13T22:35:16.009Z,6.60
2019-03-13T22:37:44.891Z,6.50
2019-03-13T22:40:13.941Z,6.40
2019-03-13T22:42:42.823Z,6.40
2019-03-13T22:45:12.244Z,6.40
2019-03-13T22:47:42.982Z,6.50
2019-03-13T22:50:15.286Z,6.60
2019-03-13T22:52:44.296Z,6.60
2019-03-13T22:55:13.404Z,6.60
2019-03-13T22:57:42.400Z,6.70
2019-03-13T23:00:27.895Z,6.70
2019-03-13T23:02:56.912Z,6.60
2019-03-13T23:05:25.897Z,6.80
2019-03-13T23:07:54.899Z,6.70
2019-03-13T23:10:30.688Z,6.70
2019-03-13T23:13:00.034Z,6.70
2019-03-13T23:15:28.928Z,6.70
2019-03-13T23:17:57.851Z,6.80
2019-03-13T23:20:26.881Z,6.80
2019-03-13T23:22:55.728Z,6.80
2019-03-13T23:25:24.645Z,6.80
2019-03-13T23:27:53.549Z,6.80
2019-03-13T23:30:22.545Z,6.80
2019-03-13T23:32:53.095Z,6.80
2019-03-13T23:35:21.993Z,6.80
2019-03-13T23:37:50.841Z,6.80
2019-03-13T23:40:19.848Z,6.90
2019-03-13T23:42:48.801Z,6.80
2019-03-13T23:45:17.792Z,7.00
2019-03-13T23:47:46.614Z,6.90
2019-03-13T23:50:15.437Z,7.00
2019-03-13T23:52:44.279Z,6.80
2019-03-13T23:55:13.242Z,6.80
2019-03-13T23:57:42.023Z,6.70
